Time;durP1;ratioP1;P1;durP2;ratioP2;P2;SDS_P1;SDS_P2;PMS_P1;PMS_P2;Temp;Humidity;BMP_temperature;BMP_pressure;BME280_temperature;BME280_humidity;BME280_pressure;Samples;Min_cycle;Max_cycle;Signal;HPM_P1;HPM_P2
2021/07/25 00:02:25;;;;;;;2.40;2.17;;;20.00;99.90;;;;;;5089382;28;20170;-77
2021/07/25 00:04:51;;;;;;;1.70;1.27;;;20.00;99.90;;;;;;5094989;28;20930;-77
2021/07/25 00:07:16;;;;;;;4.13;1.80;;;20.00;99.90;;;;;;5083036;28;20417;-78
2021/07/25 00:09:42;;;;;;;1.30;1.20;;;20.00;99.90;;;;;;5078311;28;20388;-77
2021/07/25 00:12:07;;;;;;;2.33;1.73;;;20.00;99.90;;;;;;5079947;28;20178;-76
2021/07/25 00:14:33;;;;;;;2.10;2.00;;;20.00;99.90;;;;;;5076446;28;20190;-77
2021/07/25 00:16:59;;;;;;;1.07;1.00;;;20.00;99.90;;;;;;5058789;28;20225;-78
2021/07/25 00:19:24;;;;;;;3.90;2.13;;;20.00;99.90;;;;;;5098077;28;20166;-78
2021/07/25 00:21:50;;;;;;;2.60;1.53;;;20.00;99.90;;;;;;5078257;28;20272;-78
2021/07/25 00:24:22;;;;;;;4.10;3.70;;;20.00;99.90;;;;;;5078244;28;20190;-77
2021/07/25 00:26:49;;;;;;;2.10;1.90;;;20.00;99.90;;;;;;5095720;28;20208;-77
2021/07/25 00:29:16;;;;;;;2.70;1.60;;;20.00;99.90;;;;;;5078248;28;20464;-77
2021/07/25 00:31:41;;;;;;;7.90;2.00;;;20.00;99.90;;;;;;5089635;28;20424;-78
2021/07/25 00:34:07;;;;;;;0.90;0.90;;;20.00;99.90;;;;;;5098554;28;20444;-78
2021/07/25 00:36:33;;;;;;;6.60;1.63;;;20.00;99.90;;;;;;5098567;28;20255;-78
2021/07/25 00:38:58;;;;;;;5.13;4.47;;;20.00;99.90;;;;;;5080991;28;20170;-76
2021/07/25 00:41:24;;;;;;;6.43;2.13;;;20.00;99.90;;;;;;5068854;28;20218;-78
2021/07/25 00:43:49;;;;;;;2.33;2.17;;;20.00;99.90;;;;;;5095463;28;20519;-77
2021/07/25 00:46:16;;;;;;;1.03;0.93;;;20.00;99.90;;;;;;5093507;28;20504;-77
2021/07/25 00:48:44;;;;;;;1.50;1.30;;;20.10;99.90;;;;;;5065158;28;20177;-76
2021/07/25 00:51:10;;;;;;;5.37;1.50;;;20.10;99.90;;;;;;5083839;28;20411;-77
2021/07/25 00:53:39;;;;;;;3.67;3.00;;;20.10;99.90;;;;;;5093828;28;20890;-78
2021/07/25 00:56:08;;;;;;;4.47;2.30;;;20.10;99.90;;;;;;5092783;28;20561;-76
2021/07/25 00:58:36;;;;;;;5.40;3.43;;;20.10;99.90;;;;;;5092830;28;20430;-79
2021/07/25 01:01:02;;;;;;;4.30;2.77;;;20.00;99.90;;;;;;5090909;28;20937;-77
2021/07/25 01:03:33;;;;;;;3.00;2.70;;;20.00;99.90;;;;;;5078993;28;20443;-77
2021/07/25 01:06:06;;;;;;;1.43;1.33;;;20.00;99.90;;;;;;5076140;28;20193;-76
2021/07/25 01:08:42;;;;;;;1.80;1.70;;;20.00;99.90;;;;;;5080402;28;20413;-77
2021/07/25 01:11:09;;;;;;;3.80;2.90;;;19.90;99.90;;;;;;5092066;28;20585;-77
2021/07/25 01:13:39;;;;;;;2.43;1.20;;;19.90;99.90;;;;;;5080047;28;20436;-76
2021/07/25 01:16:05;;;;;;;1.57;0.90;;;19.90;99.90;;;;;;5075817;28;20488;-79
2021/07/25 01:18:31;;;;;;;2.60;2.40;;;19.90;99.90;;;;;;5060202;28;20417;-78
2021/07/25 01:20:56;;;;;;;2.70;1.40;;;19.90;99.90;;;;;;5063840;28;20466;-77
2021/07/25 01:23:26;;;;;;;1.47;1.37;;;19.90;99.90;;;;;;5094494;28;20194;-78
2021/07/25 01:25:57;;;;;;;2.83;2.53;;;19.90;99.90;;;;;;5098542;28;20192;-78
2021/07/25 01:28:34;;;;;;;1.27;0.90;;;19.90;99.90;;;;;;5074528;28;20755;-76
2021/07/25 01:31:06;;;;;;;2.07;1.40;;;19.90;99.90;;;;;;5078577;28;20426;-77
2021/07/25 01:33:33;;;;;;;1.77;1.37;;;19.90;99.90;;;;;;5078310;28;20440;-78
2021/07/25 01:36:01;;;;;;;1.33;1.23;;;19.90;99.90;;;;;;5080401;28;20422;-78
2021/07/25 01:38:27;;;;;;;1.60;1.50;;;19.90;99.90;;;;;;5095423;28;20416;-79
2021/07/25 01:41:12;;;;;;;0.93;0.93;;;19.90;99.90;;;;;;5092134;28;20452;-78
2021/07/25 01:43:45;;;;;;;2.30;2.20;;;19.90;99.90;;;;;;5079497;28;20523;-79
2021/07/25 01:46:11;;;;;;;1.50;1.37;;;19.90;99.90;;;;;;5075869;28;20449;-78
2021/07/25 01:48:37;;;;;;;1.63;1.53;;;19.90;99.90;;;;;;5078734;28;20405;-78
2021/07/25 01:51:03;;;;;;;3.57;2.77;;;19.90;99.90;;;;;;5075621;28;20413;-77
2021/07/25 01:53:28;;;;;;;3.83;2.30;;;20.00;99.90;;;;;;5082685;28;20186;-77
2021/07/25 01:55:54;;;;;;;1.10;1.00;;;19.90;99.90;;;;;;5075807;28;20400;-77
2021/07/25 01:58:20;;;;;;;1.70;1.50;;;20.00;99.90;;;;;;5080229;28;20166;-77
2021/07/25 02:00:45;;;;;;;1.80;1.70;;;19.90;99.90;;;;;;5094523;28;20223;-78
2021/07/25 02:03:11;;;;;;;1.90;1.77;;;19.90;99.90;;;;;;5080459;28;20186;-76
2021/07/25 02:05:37;;;;;;;3.50;1.43;;;19.90;99.90;;;;;;5073033;28;20178;-78
2021/07/25 02:08:04;;;;;;;2.03;1.93;;;19.90;99.90;;;;;;5083277;28;20643;-77
2021/07/25 02:10:29;;;;;;;1.10;0.93;;;19.90;99.90;;;;;;5076416;28;20491;-77
2021/07/25 02:12:55;;;;;;;2.13;1.20;;;19.80;99.90;;;;;;5074559;28;20570;-77
2021/07/25 02:15:20;;;;;;;5.33;1.03;;;19.80;99.90;;;;;;5079672;28;20205;-76
2021/07/25 02:17:46;;;;;;;2.63;0.97;;;19.80;99.90;;;;;;5092310;28;20170;-77
2021/07/25 02:20:12;;;;;;;2.73;1.47;;;19.80;99.90;;;;;;5074476;28;20603;-78
2021/07/25 02:22:37;;;;;;;2.40;1.60;;;19.70;99.90;;;;;;5080596;28;20281;-78
2021/07/25 02:25:03;;;;;;;1.70;1.60;;;19.70;99.90;;;;;;5094791;28;20435;-77
2021/07/25 02:27:29;;;;;;;8.40;1.63;;;19.70;99.90;;;;;;5090732;28;20161;-76
2021/07/25 02:29:54;;;;;;;1.50;1.40;;;19.70;99.90;;;;;;5076890;28;20416;-79
2021/07/25 02:32:20;;;;;;;0.70;0.60;;;19.70;99.90;;;;;;5061917;28;20517;-77
2021/07/25 02:34:46;;;;;;;4.10;1.17;;;19.70;99.90;;;;;;5095570;28;20580;-77
2021/07/25 02:37:14;;;;;;;3.80;1.77;;;19.70;99.90;;;;;;5078943;28;20201;-77
2021/07/25 02:39:40;;;;;;;3.57;1.70;;;19.70;99.90;;;;;;5090356;28;20170;-77
2021/07/25 02:42:05;;;;;;;2.90;1.67;;;19.70;99.90;;;;;;5095136;28;21029;-77
2021/07/25 02:44:31;;;;;;;1.03;0.90;;;19.70;99.90;;;;;;5078371;28;20192;-78
2021/07/25 02:46:57;;;;;;;4.10;1.63;;;19.70;99.90;;;;;;5094128;28;20199;-76
2021/07/25 02:49:22;;;;;;;1.73;1.03;;;19.70;99.90;;;;;;5066888;28;20772;-78
2021/07/25 02:51:48;;;;;;;1.40;0.80;;;19.60;99.90;;;;;;5086641;28;20643;-77
2021/07/25 02:54:13;;;;;;;2.37;2.20;;;19.60;99.90;;;;;;5055525;28;20276;-76
2021/07/25 02:56:39;;;;;;;1.63;1.53;;;19.60;99.90;;;;;;5076025;28;20174;-77
2021/07/25 02:59:04;;;;;;;1.63;0.80;;;19.60;99.90;;;;;;5082379;28;20173;-77
2021/07/25 03:01:30;;;;;;;1.40;0.93;;;19.60;99.90;;;;;;5071247;28;20250;-76
2021/07/25 03:03:55;;;;;;;1.30;1.20;;;19.50;99.90;;;;;;5071561;28;20690;-77
2021/07/25 03:06:21;;;;;;;1.17;1.07;;;19.50;99.90;;;;;;5053433;28;20170;-76
2021/07/25 03:08:46;;;;;;;1.10;0.73;;;19.50;99.90;;;;;;5055020;28;20177;-76
2021/07/25 03:11:12;;;;;;;1.67;0.90;;;19.50;99.90;;;;;;5056185;28;20528;-77
2021/07/25 03:13:38;;;;;;;1.27;1.17;;;19.40;99.90;;;;;;5090976;28;20250;-76
2021/07/25 03:16:06;;;;;;;1.83;1.73;;;19.40;99.90;;;;;;5073925;28;20276;-77
2021/07/25 03:18:32;;;;;;;2.40;2.20;;;19.30;99.90;;;;;;5061305;28;20427;-79
2021/07/25 03:20:59;;;;;;;2.50;1.93;;;19.30;99.90;;;;;;5062539;28;20459;-77
2021/07/25 03:23:25;;;;;;;2.77;1.80;;;19.20;99.90;;;;;;5062111;28;20440;-78
2021/07/25 03:25:51;;;;;;;0.70;0.50;;;19.20;99.90;;;;;;5079765;28;20469;-77
2021/07/25 03:28:16;;;;;;;0.83;0.83;;;19.10;99.90;;;;;;5065533;28;21110;-77
2021/07/25 03:30:42;;;;;;;1.70;1.60;;;19.10;99.90;;;;;;5075632;28;20575;-76
2021/07/25 03:33:09;;;;;;;1.13;1.00;;;19.10;99.90;;;;;;5091393;28;20189;-76
2021/07/25 03:35:35;;;;;;;1.20;1.10;;;19.00;99.90;;;;;;5095060;28;20162;-77
2021/07/25 03:38:01;;;;;;;0.83;0.60;;;18.90;99.90;;;;;;5086345;28;20482;-77
2021/07/25 03:40:29;;;;;;;0.97;0.70;;;18.80;99.90;;;;;;5080186;28;20984;-77
2021/07/25 03:42:55;;;;;;;0.93;0.87;;;18.80;99.90;;;;;;5089067;28;20431;-76
2021/07/25 03:45:20;;;;;;;0.90;0.80;;;18.70;99.90;;;;;;5094861;28;20473;-77
2021/07/25 03:47:46;;;;;;;1.17;1.07;;;18.70;99.90;;;;;;5080433;28;20666;-79
2021/07/25 03:50:12;;;;;;;1.17;0.80;;;18.60;99.90;;;;;;5078502;28;20514;-77
2021/07/25 03:52:37;;;;;;;0.70;0.67;;;18.60;99.90;;;;;;5077180;28;20186;-78
2021/07/25 03:55:07;;;;;;;0.70;0.60;;;18.60;99.90;;;;;;5074971;28;20496;-77
2021/07/25 03:57:33;;;;;;;4.60;1.27;;;18.60;99.90;;;;;;5090155;28;20252;-79
2021/07/25 03:59:58;;;;;;;0.70;0.60;;;18.60;99.90;;;;;;5097595;28;20399;-77
2021/07/25 04:02:24;;;;;;;3.03;1.20;;;18.60;99.90;;;;;;5099905;28;20451;-78
2021/07/25 04:04:50;;;;;;;1.53;1.43;;;18.50;99.90;;;;;;5099743;28;20162;-77
2021/07/25 04:07:15;;;;;;;2.50;2.30;;;18.50;99.90;;;;;;5088001;28;20589;-77
2021/07/25 04:09:41;;;;;;;1.10;0.97;;;18.40;99.90;;;;;;5080031;28;20170;-78
2021/07/25 04:12:06;;;;;;;1.13;1.03;;;18.40;99.90;;;;;;5073732;28;20174;-77
2021/07/25 04:14:32;;;;;;;1.57;1.47;;;18.30;99.90;;;;;;5081530;28;20566;-79
2021/07/25 04:16:57;;;;;;;1.73;1.43;;;18.30;99.90;;;;;;5097937;28;20184;-77
2021/07/25 04:19:23;;;;;;;2.97;1.70;;;18.30;99.90;;;;;;5096811;28;20185;-76
2021/07/25 04:21:49;;;;;;;0.87;0.70;;;18.30;99.90;;;;;;5092607;28;20554;-76
2021/07/25 04:24:14;;;;;;;3.00;0.93;;;18.30;99.90;;;;;;5094392;28;20677;-77
2021/07/25 04:26:40;;;;;;;0.70;0.50;;;18.30;99.90;;;;;;5092955;28;20170;-77
2021/07/25 04:29:06;;;;;;;2.47;0.97;;;18.30;99.90;;;;;;5076021;28;20189;-77
2021/07/25 04:31:32;;;;;;;1.47;1.37;;;18.30;99.90;;;;;;5073459;28;20193;-76
2021/07/25 04:33:59;;;;;;;2.47;2.27;;;18.30;99.90;;;;;;5074852;28;20465;-76
2021/07/25 04:36:26;;;;;;;0.80;0.80;;;18.30;99.90;;;;;;5074469;28;20428;-77
2021/07/25 04:38:54;;;;;;;0.70;0.60;;;18.30;99.90;;;;;;5073897;28;20493;-77
2021/07/25 04:41:25;;;;;;;0.80;0.70;;;18.20;99.90;;;;;;5076265;28;20882;-78
2021/07/25 04:44:03;;;;;;;4.00;1.03;;;18.20;99.90;;;;;;5081048;28;20802;-78
2021/07/25 04:46:33;;;;;;;1.67;1.13;;;18.20;99.90;;;;;;5092626;28;20416;-79
2021/07/25 04:49:11;;;;;;;1.00;0.90;;;18.20;99.90;;;;;;5098774;28;21097;-76
2021/07/25 04:51:39;;;;;;;0.80;0.63;;;18.10;99.90;;;;;;5093861;28;20968;-77
2021/07/25 04:54:09;;;;;;;0.83;0.83;;;18.20;99.90;;;;;;5098814;28;20427;-78
2021/07/25 04:56:59;;;;;;;1.20;1.10;;;18.20;99.90;;;;;;5093899;28;20484;-77
2021/07/25 04:59:54;;;;;;;1.03;0.73;;;18.20;99.90;;;;;;5093718;28;20404;-77
2021/07/25 05:02:23;;;;;;;0.80;0.63;;;18.20;99.90;;;;;;5096554;28;20459;-79
2021/07/25 05:04:49;;;;;;;3.57;0.90;;;18.30;99.90;;;;;;5099082;28;20540;-79
2021/07/25 05:07:15;;;;;;;1.20;1.10;;;18.30;99.90;;;;;;5078696;28;20420;-79
2021/07/25 05:09:41;;;;;;;1.20;0.93;;;18.20;99.90;;;;;;5093683;28;20426;-77
2021/07/25 05:12:27;;;;;;;1.53;1.37;;;18.20;99.90;;;;;;5073333;28;20905;-77
2021/07/25 05:15:18;;;;;;;1.33;1.23;;;18.30;99.90;;;;;;5058052;28;20416;-77
2021/07/25 05:17:55;;;;;;;6.33;1.17;;;18.30;99.90;;;;;;5070842;28;20424;-77
2021/07/25 05:20:31;;;;;;;2.80;2.60;;;18.40;99.90;;;;;;5072994;28;20404;-77
2021/07/25 05:23:18;;;;;;;0.80;0.77;;;18.40;99.90;;;;;;5074180;28;20456;-78
2021/07/25 05:25:49;;;;;;;0.70;0.50;;;18.40;99.90;;;;;;5076615;28;20392;-77
2021/07/25 05:28:16;;;;;;;4.10;2.07;;;18.50;99.90;;;;;;5073162;28;20776;-77
2021/07/25 05:30:47;;;;;;;1.23;1.13;;;18.60;99.90;;;;;;5086856;28;20423;-77
2021/07/25 05:33:12;;;;;;;2.00;1.00;;;18.70;99.90;;;;;;5080652;28;20436;-78
2021/07/25 05:35:38;;;;;;;2.10;1.70;;;18.70;99.90;;;;;;5091722;28;20459;-77
2021/07/25 05:38:03;;;;;;;2.37;1.60;;;18.80;99.90;;;;;;5087192;28;20184;-77
2021/07/25 05:40:29;;;;;;;0.80;0.73;;;18.80;99.90;;;;;;5092917;28;20197;-78
2021/07/25 05:42:54;;;;;;;1.73;1.27;;;18.80;99.90;;;;;;5097604;28;20204;-79
2021/07/25 05:45:20;;;;;;;0.80;0.80;;;18.80;99.90;;;;;;5079716;28;20173;-78
2021/07/25 05:47:45;;;;;;;2.20;2.10;;;18.90;99.90;;;;;;5094301;28;20166;-77
2021/07/25 05:50:11;;;;;;;1.90;0.90;;;19.00;99.90;;;;;;5094203;28;20169;-79
2021/07/25 05:52:44;;;;;;;1.87;1.77;;;19.10;99.90;;;;;;5094324;28;21877;-78
2021/07/25 05:55:10;;;;;;;1.27;1.17;;;19.20;99.90;;;;;;5075531;28;20992;-77
2021/07/25 05:57:36;;;;;;;1.93;1.83;;;19.30;99.90;;;;;;5058707;28;20444;-78
2021/07/25 06:00:02;;;;;;;3.20;1.70;;;19.60;99.90;;;;;;5072408;28;20886;-77
2021/07/25 06:02:28;;;;;;;2.03;1.43;;;19.80;99.90;;;;;;5073019;28;20198;-79
2021/07/25 06:04:53;;;;;;;2.07;1.97;;;20.00;99.90;;;;;;5078267;28;20163;-78
2021/07/25 06:07:19;;;;;;;1.50;1.40;;;20.20;99.90;;;;;;5060835;28;20200;-78
2021/07/25 06:09:44;;;;;;;1.50;1.40;;;20.50;99.90;;;;;;5075101;28;20170;-78
2021/07/25 06:12:13;;;;;;;1.10;0.93;;;20.70;99.90;;;;;;5071967;28;20174;-77
2021/07/25 06:14:38;;;;;;;2.60;1.30;;;20.90;99.90;;;;;;5071936;28;20259;-77
2021/07/25 06:17:03;;;;;;;2.60;1.97;;;21.10;99.90;;;;;;5071847;28;20412;-77
2021/07/25 06:19:29;;;;;;;1.00;0.80;;;21.30;99.90;;;;;;5057475;28;20177;-78
2021/07/25 06:21:54;;;;;;;1.23;1.03;;;21.40;99.90;;;;;;5077241;28;20679;-78
2021/07/25 06:24:20;;;;;;;0.80;0.70;;;21.50;99.90;;;;;;5075583;28;20232;-78
2021/07/25 06:26:47;;;;;;;1.20;0.80;;;21.70;99.90;;;;;;5071754;28;20279;-78
2021/07/25 06:29:13;;;;;;;1.27;0.70;;;21.80;99.90;;;;;;5072035;28;20204;-77
2021/07/25 06:31:38;;;;;;;0.83;0.77;;;22.00;99.90;;;;;;5065639;28;20421;-77
2021/07/25 06:34:04;;;;;;;3.13;2.50;;;22.30;99.90;;;;;;5075187;28;20216;-77
2021/07/25 06:36:30;;;;;;;2.13;1.93;;;22.50;99.90;;;;;;5071702;28;20540;-77
2021/07/25 06:38:55;;;;;;;0.90;0.63;;;22.70;99.90;;;;;;5053868;28;20170;-78
2021/07/25 06:41:21;;;;;;;0.90;0.73;;;22.80;99.90;;;;;;5071902;28;20221;-77
2021/07/25 06:43:47;;;;;;;1.40;1.30;;;23.00;99.90;;;;;;5052252;28;20205;-77
2021/07/25 06:46:12;;;;;;;1.20;0.70;;;23.00;99.90;;;;;;5071552;28;20158;-77
2021/07/25 06:48:39;;;;;;;1.20;1.00;;;23.20;99.90;;;;;;5053686;28;20185;-77
2021/07/25 06:51:04;;;;;;;3.00;2.70;;;23.30;99.90;;;;;;5071875;28;20291;-77
2021/07/25 06:53:32;;;;;;;0.90;0.67;;;23.40;99.90;;;;;;5073316;28;20911;-78
2021/07/25 06:56:01;;;;;;;0.90;0.83;;;23.60;99.90;;;;;;5075474;28;20170;-78
2021/07/25 06:58:26;;;;;;;0.90;0.70;;;23.70;99.90;;;;;;5057868;28;20412;-77
2021/07/25 07:00:52;;;;;;;1.20;1.00;;;23.80;99.90;;;;;;5075836;28;20975;-77
2021/07/25 07:03:19;;;;;;;3.23;1.87;;;24.10;99.90;;;;;;5057607;28;20702;-78
2021/07/25 07:05:45;;;;;;;1.23;0.93;;;24.30;99.90;;;;;;5057267;28;20178;-78
2021/07/25 07:08:11;;;;;;;1.10;0.97;;;24.40;99.90;;;;;;5061616;28;20833;-77
2021/07/25 07:10:38;;;;;;;0.83;0.80;;;24.50;99.90;;;;;;5075529;28;20174;-78
2021/07/25 07:13:07;;;;;;;1.47;0.80;;;24.70;99.90;;;;;;5064379;28;20637;-77
2021/07/25 07:15:33;;;;;;;0.90;0.70;;;24.70;99.90;;;;;;5095496;28;20426;-77
2021/07/25 07:17:59;;;;;;;0.90;0.77;;;24.80;99.90;;;;;;5090393;28;20444;-77
2021/07/25 07:20:26;;;;;;;1.53;1.43;;;25.00;99.90;;;;;;5091892;28;21004;-77
2021/07/25 07:22:55;;;;;;;1.00;0.90;;;25.20;99.90;;;;;;5076517;28;20474;-77
2021/07/25 07:25:22;;;;;;;3.00;0.90;;;25.40;99.90;;;;;;5093552;28;20415;-77
2021/07/25 07:27:48;;;;;;;1.77;1.67;;;25.70;99.90;;;;;;5091786;28;20452;-77
2021/07/25 07:30:14;;;;;;;0.97;0.67;;;26.00;99.90;;;;;;5083972;28;20430;-77
2021/07/25 07:32:39;;;;;;;1.57;1.13;;;26.20;99.90;;;;;;5087503;28;20446;-77
2021/07/25 07:35:05;;;;;;;0.80;0.67;;;26.40;99.90;;;;;;5084985;28;20192;-77
2021/07/25 07:37:31;;;;;;;0.90;0.70;;;26.70;99.90;;;;;;5084368;28;20690;-77
2021/07/25 07:39:57;;;;;;;2.33;0.90;;;26.80;99.90;;;;;;5085551;28;20439;-76
2021/07/25 07:42:22;;;;;;;1.77;1.67;;;26.90;99.90;;;;;;5085260;28;20331;-77
2021/07/25 07:44:48;;;;;;;0.80;0.70;;;27.10;99.90;;;;;;5088263;28;20166;-78
2021/07/25 07:47:14;;;;;;;1.30;0.93;;;27.30;99.90;;;;;;5083472;28;20399;-77
2021/07/25 07:49:40;;;;;;;1.50;1.40;;;27.40;99.90;;;;;;5072526;28;20241;-77
2021/07/25 07:52:06;;;;;;;0.80;0.70;;;27.60;99.90;;;;;;5084784;28;20166;-77
2021/07/25 07:54:32;;;;;;;1.20;0.80;;;27.70;99.90;;;;;;5087709;28;20197;-77
2021/07/25 07:56:57;;;;;;;1.10;0.93;;;27.70;99.90;;;;;;5082683;28;20428;-77
2021/07/25 07:59:23;;;;;;;0.80;0.70;;;27.90;99.90;;;;;;5075015;28;20428;-77
2021/07/25 08:01:48;;;;;;;0.80;0.60;;;27.90;99.90;;;;;;5074532;28;20201;-77
2021/07/25 08:04:14;;;;;;;1.33;1.23;;;28.00;99.90;;;;;;5090135;28;20193;-77
2021/07/25 08:06:39;;;;;;;1.10;1.00;;;28.00;99.90;;;;;;5086733;28;20716;-77
2021/07/25 08:09:05;;;;;;;1.80;1.70;;;28.20;99.90;;;;;;5075669;28;20178;-77
2021/07/25 08:11:30;;;;;;;1.20;1.00;;;28.20;99.90;;;;;;5074357;28;20177;-77
2021/07/25 08:13:57;;;;;;;1.40;1.03;;;28.40;99.90;;;;;;5074331;28;20244;-77
2021/07/25 08:16:22;;;;;;;2.57;1.37;;;28.50;99.90;;;;;;5077949;28;20630;-76
2021/07/25 08:18:48;;;;;;;1.70;0.83;;;28.70;99.90;;;;;;5086749;28;20432;-77
2021/07/25 08:21:13;;;;;;;1.20;1.10;;;28.90;99.90;;;;;;5074787;28;20193;-76
2021/07/25 08:23:39;;;;;;;1.10;0.97;;;29.00;99.90;;;;;;5091092;28;20221;-77
2021/07/25 08:26:04;;;;;;;1.43;0.93;;;29.20;99.90;;;;;;5094054;28;20169;-77
2021/07/25 08:28:30;;;;;;;1.30;0.93;;;29.30;99.90;;;;;;5092354;28;20193;-77
2021/07/25 08:30:56;;;;;;;1.30;1.20;;;29.50;99.90;;;;;;5094254;28;20646;-77
2021/07/25 08:33:22;;;;;;;1.00;0.70;;;29.80;99.90;;;;;;5089892;28;20981;-77
2021/07/25 08:35:47;;;;;;;2.00;1.83;;;30.00;99.90;;;;;;5093636;28;20412;-77
2021/07/25 08:38:13;;;;;;;2.07;1.10;;;30.10;99.90;;;;;;5094059;28;20173;-77
2021/07/25 08:40:42;;;;;;;1.00;0.90;;;30.30;99.90;;;;;;5086987;28;20196;-77
2021/07/25 08:43:10;;;;;;;1.10;0.93;;;30.20;99.90;;;;;;5061134;28;20469;-77
2021/07/25 08:45:44;;;;;;;1.27;1.17;;;30.50;99.90;;;;;;5093008;28;20404;-76
2021/07/25 08:48:12;;;;;;;0.90;0.70;;;30.70;99.90;;;;;;5060738;28;20421;-77
2021/07/25 08:50:46;;;;;;;0.90;0.70;;;30.70;99.90;;;;;;5091683;28;20473;-77
2021/07/25 08:53:18;;;;;;;1.00;0.80;;;31.00;99.90;;;;;;5093428;28;20488;-77
2021/07/25 08:55:46;;;;;;;1.40;1.30;;;31.10;99.90;;;;;;5093361;28;20404;-77
2021/07/25 08:58:12;;;;;;;1.00;0.80;;;31.30;99.90;;;;;;5093750;28;20503;-76
2021/07/25 09:00:38;;;;;;;2.07;1.07;;;31.50;99.90;;;;;;5075692;28;20872;-77
2021/07/25 09:03:11;;;;;;;1.03;0.93;;;31.70;96.40;;;;;;5080801;28;20250;-77
2021/07/25 09:05:37;;;;;;;1.10;0.97;;;31.70;97.20;;;;;;5074766;28;20465;-76
2021/07/25 09:08:03;;;;;;;1.10;0.70;;;31.80;96.90;;;;;;5090667;28;20416;-76
2021/07/25 09:10:30;;;;;;;2.07;1.70;;;32.00;95.30;;;;;;5079690;28;20166;-77
2021/07/25 09:12:56;;;;;;;1.20;1.00;;;32.10;92.90;;;;;;5074727;28;20462;-77
2021/07/25 09:15:26;;;;;;;1.20;1.10;;;32.30;91.50;;;;;;5077316;28;20419;-77
2021/07/25 09:17:52;;;;;;;1.17;1.07;;;32.50;91.80;;;;;;5080837;28;20436;-77
2021/07/25 09:20:29;;;;;;;1.00;0.90;;;32.80;90.20;;;;;;5088060;28;20501;-77
2021/07/25 09:22:57;;;;;;;8.33;1.37;;;32.90;90.30;;;;;;5072632;28;20444;-77
2021/07/25 09:25:22;;;;;;;3.67;1.13;;;33.00;87.30;;;;;;5072578;28;20396;-77
2021/07/25 09:27:48;;;;;;;1.20;0.97;;;33.20;91.60;;;;;;5072595;28;20427;-77
2021/07/25 09:30:20;;;;;;;1.20;1.10;;;33.10;83.40;;;;;;5072343;28;20196;-76
2021/07/25 09:32:49;;;;;;;1.47;1.17;;;33.20;83.70;;;;;;5072660;28;20182;-77
2021/07/25 09:35:28;;;;;;;0.90;0.70;;;32.90;81.80;;;;;;5072408;28;20487;-76
2021/07/25 09:37:57;;;;;;;1.13;1.03;;;32.50;79.30;;;;;;5072638;28;20408;-76
2021/07/25 09:40:27;;;;;;;1.67;1.00;;;32.10;82.00;;;;;;5075657;28;20443;-76
2021/07/25 09:43:13;;;;;;;1.60;1.33;;;31.60;81.50;;;;;;5092867;28;20434;-77
2021/07/25 09:46:00;;;;;;;1.00;0.90;;;31.10;86.50;;;;;;5092579;28;20987;-76
2021/07/25 09:48:34;;;;;;;1.20;1.10;;;30.50;89.20;;;;;;5074392;28;20984;-77
2021/07/25 09:51:02;;;;;;;1.13;1.03;;;30.20;92.50;;;;;;5084001;28;20825;-77
2021/07/25 09:53:45;;;;;;;1.13;1.03;;;29.90;95.50;;;;;;5054715;28;21004;-77
2021/07/25 09:56:15;;;;;;;1.23;0.70;;;29.90;99.90;;;;;;5054170;28;20494;-77
2021/07/25 09:58:41;;;;;;;1.17;1.07;;;30.00;98.20;;;;;;5075944;28;20442;-77
2021/07/25 10:01:07;;;;;;;1.20;1.07;;;30.40;96.70;;;;;;5085525;28;20546;-77
2021/07/25 10:03:33;;;;;;;6.30;1.30;;;30.90;99.90;;;;;;5054737;28;20554;-77
2021/07/25 10:06:17;;;;;;;2.50;2.30;;;31.40;96.80;;;;;;5071761;28;20536;-77
2021/07/25 10:08:45;;;;;;;1.20;1.10;;;32.00;94.40;;;;;;5079750;28;20508;-77
2021/07/25 10:11:18;;;;;;;1.47;1.37;;;32.40;92.30;;;;;;5074125;28;20446;-77
2021/07/25 10:13:46;;;;;;;8.20;3.10;;;32.30;92.20;;;;;;5063125;28;20481;-76
2021/07/25 10:16:11;;;;;;;2.27;2.17;;;31.90;92.60;;;;;;5062750;28;20413;-76
2021/07/25 10:18:37;;;;;;;3.37;3.13;;;31.30;90.90;;;;;;5071913;28;20447;-77
2021/07/25 10:21:04;;;;;;;2.83;2.40;;;30.80;91.70;;;;;;5082057;28;20237;-77
2021/07/25 10:23:47;;;;;;;1.43;1.13;;;30.40;93.70;;;;;;5075925;28;20436;-77
2021/07/25 10:26:14;;;;;;;1.10;0.93;;;30.00;94.60;;;;;;5053606;28;20925;-76
2021/07/25 10:28:40;;;;;;;1.00;0.87;;;29.70;98.40;;;;;;5075030;28;20529;-76
2021/07/25 10:31:08;;;;;;;1.30;1.13;;;29.30;99.90;;;;;;5062009;28;21075;-76
2021/07/25 10:33:36;;;;;;;1.67;1.40;;;28.90;99.90;;;;;;5070963;28;20937;-76
2021/07/25 10:36:03;;;;;;;2.03;1.40;;;28.80;99.90;;;;;;5049913;28;20486;-77
2021/07/25 10:38:29;;;;;;;1.33;0.70;;;28.60;99.90;;;;;;5067857;28;20424;-76
2021/07/25 10:40:56;;;;;;;2.00;0.80;;;28.50;99.90;;;;;;5053741;28;20818;-77
2021/07/25 10:43:26;;;;;;;1.07;0.93;;;28.40;99.90;;;;;;5053730;28;20468;-77
2021/07/25 10:46:13;;;;;;;1.33;1.23;;;28.80;99.90;;;;;;5069916;28;20440;-76
2021/07/25 10:48:38;;;;;;;0.80;0.70;;;29.50;99.90;;;;;;5070781;28;20424;-76
2021/07/25 10:51:11;;;;;;;1.10;1.00;;;30.10;99.90;;;;;;5071547;28;20416;-77
2021/07/25 10:53:36;;;;;;;1.20;1.10;;;30.80;99.90;;;;;;5071310;28;20213;-76
2021/07/25 10:56:02;;;;;;;1.00;0.90;;;31.40;99.70;;;;;;5071346;28;20482;-77
2021/07/25 10:58:28;;;;;;;1.10;1.00;;;31.90;95.40;;;;;;5053626;28;20177;-77
2021/07/25 11:00:55;;;;;;;0.90;0.80;;;32.40;97.30;;;;;;5071255;28;20614;-76
2021/07/25 11:03:29;;;;;;;0.90;0.60;;;32.90;91.10;;;;;;5071232;28;20273;-77
2021/07/25 11:06:07;;;;;;;1.20;1.00;;;33.50;89.10;;;;;;5053275;28;20434;-77
2021/07/25 11:08:44;;;;;;;6.77;4.47;;;33.90;79.50;;;;;;5070712;28;21218;-76
2021/07/25 11:11:39;;;;;;;12.30;8.23;;;34.40;73.50;;;;;;5071605;28;20407;-77
2021/07/25 11:14:08;;;;;;;2.23;1.40;;;34.80;77.90;;;;;;5051316;28;20422;-77
2021/07/25 11:16:44;;;;;;;1.40;1.30;;;35.00;72.80;;;;;;5051207;28;20409;-77
2021/07/25 11:19:11;;;;;;;2.07;1.43;;;35.30;66.30;;;;;;5064186;28;20424;-76
2021/07/25 11:21:40;;;;;;;1.60;1.50;;;35.60;64.00;;;;;;5071794;28;20867;-76
2021/07/25 11:24:23;;;;;;;2.33;2.13;;;35.60;67.90;;;;;;5051335;28;20532;-76
2021/07/25 11:26:51;;;;;;;5.03;1.80;;;35.90;65.90;;;;;;5049389;28;20432;-76
2021/07/25 11:29:37;;;;;;;1.10;1.00;;;36.20;63.60;;;;;;5067392;28;20424;-77
2021/07/25 11:32:23;;;;;;;1.30;1.10;;;36.50;62.90;;;;;;5070628;28;20416;-77
2021/07/25 11:35:02;;;;;;;0.93;0.83;;;36.70;63.40;;;;;;5070585;28;20448;-77
2021/07/25 11:37:40;;;;;;;1.50;0.93;;;36.90;61.90;;;;;;5079859;28;20769;-77
2021/07/25 11:40:09;;;;;;;1.40;1.30;;;37.00;60.20;;;;;;5072006;28;20400;-77
2021/07/25 11:42:36;;;;;;;2.27;1.10;;;36.80;55.50;;;;;;5056769;28;20485;-76
2021/07/25 11:45:03;;;;;;;0.90;0.80;;;36.10;58.40;;;;;;5074199;28;20440;-76
2021/07/25 11:47:29;;;;;;;0.90;0.80;;;35.80;60.30;;;;;;5074379;28;20517;-77
2021/07/25 11:49:55;;;;;;;1.20;1.10;;;35.50;58.70;;;;;;5074499;28;20937;-77
2021/07/25 11:52:24;;;;;;;1.40;0.97;;;35.70;59.60;;;;;;5074173;28;20690;-76
2021/07/25 11:54:51;;;;;;;4.30;1.30;;;35.60;60.20;;;;;;5072460;28;20509;-78
2021/07/25 11:57:22;;;;;;;0.90;0.70;;;35.30;60.50;;;;;;5074447;28;20412;-76
2021/07/25 11:59:58;;;;;;;1.03;0.90;;;34.90;61.70;;;;;;5074482;28;20491;-76
2021/07/25 12:02:29;;;;;;;1.00;0.80;;;34.70;62.20;;;;;;5074365;28;20501;-76
2021/07/25 12:04:56;;;;;;;1.60;1.10;;;34.70;63.80;;;;;;5073988;28;20417;-76
2021/07/25 12:07:29;;;;;;;1.10;0.90;;;34.60;61.90;;;;;;5074346;28;20415;-76
2021/07/25 12:09:56;;;;;;;1.43;1.00;;;34.50;58.90;;;;;;5074133;28;20412;-76
2021/07/25 12:12:28;;;;;;;1.83;1.70;;;34.30;58.30;;;;;;5073999;28;20412;-76
2021/07/25 12:14:57;;;;;;;1.00;0.90;;;34.30;58.80;;;;;;5065909;28;20413;-78
2021/07/25 12:17:38;;;;;;;1.33;1.20;;;34.50;59.90;;;;;;5088519;28;20403;-75
2021/07/25 12:20:13;;;;;;;1.20;1.10;;;34.40;57.20;;;;;;5088501;28;20453;-76
2021/07/25 12:23:00;;;;;;;1.20;0.87;;;34.30;56.80;;;;;;5070832;28;20546;-75
2021/07/25 12:25:27;;;;;;;1.67;1.10;;;34.30;57.00;;;;;;5071666;28;20779;-76
2021/07/25 12:28:08;;;;;;;1.50;0.90;;;34.60;59.80;;;;;;5076074;28;20787;-76
2021/07/25 12:30:41;;;;;;;2.33;1.40;;;34.90;58.70;;;;;;5073381;28;20958;-76
2021/07/25 12:33:07;;;;;;;1.20;1.10;;;35.20;56.50;;;;;;5068424;28;20448;-76
2021/07/25 12:35:34;;;;;;;0.90;0.80;;;35.60;57.20;;;;;;5065712;28;20433;-76
2021/07/25 12:38:00;;;;;;;1.03;0.93;;;35.70;54.80;;;;;;5065101;28;20936;-77
2021/07/25 12:40:44;;;;;;;1.80;1.30;;;35.40;53.50;;;;;;5068345;28;20995;-75
2021/07/25 12:43:10;;;;;;;1.00;0.90;;;35.30;54.50;;;;;;5058361;28;20438;-75
2021/07/25 12:45:36;;;;;;;0.93;0.80;;;35.20;55.30;;;;;;5072994;28;20896;-76
2021/07/25 12:48:10;;;;;;;0.90;0.80;;;35.40;53.90;;;;;;5076233;28;20492;-77
2021/07/25 12:53:36;;;;;;;1.73;1.37;;;35.40;54.40;;;;;;5075816;28;20443;-78
2021/07/25 12:56:11;;;;;;;0.90;0.77;;;35.40;54.80;;;;;;5075046;28;20933;-77
2021/07/25 12:58:39;;;;;;;0.90;0.80;;;35.30;53.60;;;;;;5073915;28;20501;-77